Data for 11/16/2012

Time Sea-Level Adjusted Pressure Absolute Pressure Temperature Relative Humidity Dew Point   
(mb) (inHg) (mb) (inHg) (C) (F) (%) (C) (F)
00:05 1019 30.09 848 25.04 -1.4 29.5 63 -7.5 18.5
00:10 1019 30.09 848 25.04 -1.4 29.5 63 -7.5 18.5
00:15 1019 30.09 848 25.04 -1 30.1 61 -7.6 18.4
00:20 1019 30.09 848 25.04 -1.1 30 63 -7.4 18.7
00:25 1019 30.09 848 25.04 -1 30.2 60 -7.8 18
00:30 1019 30.09 848 25.04 -1.1 30.1 61 -7.7 18.1
00:35 1019 30.09 848 25.04 -1 30.2 61 -7.7 18.2
00:40 1019 30.09 848 25.04 -0.9 30.4 60 -7.7 18.2
00:45 1019 30.09 848 25.04 -1.1 29.9 61 -7.8 18
00:50 1019 30.09 848 25.04 -1 30.2 64 -7.1 19.3
00:55 1019 30.09 848 25.04 -1 30.1 65 -6.9 19.6
01:00 1018 30.06 848 25.04 -1.3 29.7 66 -6.9 19.5
01:05 1018 30.06 848 25.04 -1.7 28.9 68 -7 19.5
01:10 1019 30.09 848 25.04 -1.8 28.7 67 -7.2 19.1
01:15 1018 30.06 848 25.04 -1.5 29.2 67 -6.8 19.7
01:20 1018 30.06 848 25.04 -1.7 28.9 67 -7 19.3
01:25 1019 30.09 848 25.04 -2.2 28.1 69 -7.1 19.3
01:30 1018 30.06 848 25.04 -2.1 28.2 70 -7 19.4
01:35 1018 30.06 848 25.04 -2.1 28.1 70 -6.9 19.5
01:40 1018 30.06 848 25.04 -2.2 28.1 69 -7 19.4
01:45 1018 30.06 848 25.04 -2.1 28.2 70 -7 19.5
01:50 1018 30.06 847 25.01 -2.1 28.3 69 -7 19.4
01:55 1018 30.06 847 25.01 -1.7 29 68 -6.8 19.8
02:00 1018 30.06 847 25.01 -1.6 29.1 69 -6.6 20.1
02:05 1018 30.06 847 25.01 -1.5 29.3 67 -6.8 19.7
02:10 1018 30.06 847 25.01 -2 28.4 69 -6.9 19.5
02:15 1018 30.06 847 25.01 -2.2 28.1 70 -7 19.4
02:20 1018 30.06 847 25.01 -2 28.5 68 -7.1 19.3
02:25 1018 30.06 847 25.01 -2 28.4 68 -7.1 19.2
02:30 1018 30.06 847 25.01 -2.2 28.1 68 -7.3 18.9
02:35 1018 30.06 847 25.01 -2.4 27.7 72 -6.8 19.8
02:40 1018 30.06 847 25.01 -1.6 29.1 66 -7.2 19.1
02:45 1018 30.06 847 25.01 -1.3 29.7 66 -6.9 19.5
02:50 1018 30.06 847 25.01 -1.7 28.9 70 -6.4 20.4
02:55 1018 30.06 847 25.01 -1.9 28.6 71 -6.6 20.2
03:00 1018 30.06 847 25.01 -2 28.4 71 -6.6 20.2
03:05 1018 30.06 847 25.01 -1.8 28.8 68 -6.9 19.6
03:10 1018 30.06 847 25.01 -1.8 28.7 70 -6.6 20.1
03:15 1018 30.06 847 25.01 -2.2 28 69 -7.1 19.3
03:20 1018 30.06 847 25.01 -1.3 29.6 66 -6.9 19.7
03:25 1018 30.06 847 25.01 -1.9 28.6 69 -6.9 19.6
03:30 1018 30.06 847 25.01 -2.3 27.8 69 -7.3 18.9
03:35 1018 30.06 847 25.01 -2.2 28.1 68 -7.3 18.8
03:40 1018 30.06 847 25.01 -2.3 27.9 68 -7.4 18.6
03:45 1018 30.06 847 25.01 -2.1 28.2 66 -7.6 18.3
03:50 1018 30.06 847 25.01 -2.2 28 67 -7.5 18.5
03:55 1018 30.06 847 25.01 -1.7 28.9 67 -7.1 19.2
04:00 1018 30.06 847 25.01 -1.2 29.8 66 -6.8 19.7
04:05 1018 30.06 847 25.01 -0.6 31 64 -6.5 20.3
04:10 1017 30.03 847 25.01 -0.2 31.6 63 -6.4 20.5
04:15 1017 30.03 847 25.01 -0.8 30.6 63 -7 19.3
04:20 1017 30.03 847 25.01 -1.1 30 66 -6.6 20.1
04:25 1017 30.03 847 25.01 -1.8 28.7 67 -7.1 19.2
04:30 1017 30.03 847 25.01 -2.1 28.3 70 -6.8 19.8
04:35 1017 30.03 847 25.01 -1.9 28.7 68 -7 19.5
04:40 1017 30.03 847 25.01 -2 28.4 71 -6.5 20.3
04:45 1017 30.03 847 25.01 -2 28.4 70 -6.8 19.8
04:50 1017 30.03 846 24.98 -1.3 29.7 68 -6.5 20.3
04:55 1017 30.03 846 24.98 -1.1 30 68 -6.3 20.7
05:00 1017 30.03 846 24.98 -0.9 30.3 67 -6.3 20.6
05:05 1017 30.03 846 24.98 -1.2 29.9 68 -6.3 20.6
05:10 1017 30.03 846 24.98 -1.9 28.7 73 -6.2 20.9
05:15 1017 30.03 846 24.98 -2.1 28.2 69 -7.1 19.2
05:20 1017 30.03 846 24.98 -2.1 28.3 70 -6.9 19.7
05:25 1017 30.03 846 24.98 -1.6 29.2 69 -6.6 20.2
05:30 1017 30.03 846 24.98 -1.5 29.3 72 -5.9 21.4
05:35 1017 30.03 846 24.98 -1.7 28.9 72 -6.1 21.1
05:40 1017 30.03 846 24.98 -2.1 28.2 75 -6 21.2
05:45 1017 30.03 846 24.98 -1.9 28.6 70 -6.6 20.1
05:50 1017 30.03 846 24.98 -1.6 29.1 69 -6.5 20.3
05:55 1017 30.03 846 24.98 -1.4 29.5 67 -6.7 20
06:00 1017 30.03 846 24.98 -1.4 29.4 68 -6.7 20
06:05 1017 30.03 846 24.98 -1.4 29.4 67 -6.7 19.9
06:10 1017 30.03 846 24.98 -0.9 30.5 66 -6.5 20.3
06:15 1017 30.03 846 24.98 -0.6 31 65 -6.3 20.7
06:20 1017 30.03 846 24.98 -0.1 31.7 64 -6.2 20.8
06:25 1017 30.03 846 24.98 0.3 32.6 61 -6.3 20.7
06:30 1017 30.03 846 24.98 0.3 32.5 60 -6.6 20.2
06:35 1017 30.03 846 24.98 0.1 32.2 62 -6.4 20.6
06:40 1017 30.03 846 24.98 -0 32 63 -6.3 20.7
06:45 1017 30.03 846 24.98 0.1 32.2 62 -6.3 20.7
06:50 1017 30.03 846 24.98 -0 32 63 -6.1 20.9
06:55 1017 30.03 846 24.98 0.5 32.9 60 -6.3 20.7
07:00 1017 30.03 846 24.98 1 33.7 60 -6.1 21.1
07:05 1017 30.03 846 24.98 0.9 33.6 58 -6.4 20.6
07:10 1017 30.03 846 24.98 1.6 34.9 56 -6.2 20.8
07:15 1017 30.03 846 24.98 2 35.7 55 -6.1 20.9
07:20 1017 30.03 846 24.98 1.8 35.3 57 -5.9 21.4
07:25 1017 30.03 846 24.98 1.5 34.8 56 -6.2 20.8
07:30 1017 30.03 846 24.98 1.6 34.9 57 -6 21.2
07:35 1017 30.03 846 24.98 1.2 34.1 59 -6 21.2
07:40 1017 30.03 846 24.98 0.5 32.9 64 -5.5 22.2
07:45 1017 30.03 846 24.98 -0.4 31.3 67 -5.7 21.7
07:50 1017 30.03 846 24.98 -0.8 30.5 67 -6.2 20.8
07:55 1017 30.03 846 24.98 -0.4 31.3 66 -6 21.2
08:00 1017 30.03 846 24.98 0.1 32.2 65 -5.8 21.6
08:05 1017 30.03 846 24.98 -0.3 31.5 67 -5.7 21.7
08:10 1017 30.03 846 24.98 -0.9 30.4 70 -5.8 21.6
08:15 1017 30.03 846 24.98 -1.2 29.9 71 -5.9 21.4
08:20 1017 30.03 846 24.98 -1.5 29.3 71 -6.1 21
08:25 1017 30.03 846 24.98 -1.7 29 70 -6.4 20.5
08:30 1017 30.03 846 24.98 -1.6 29.2 68 -6.7 19.9
08:35 1017 30.03 846 24.98 -1.2 29.8 66 -6.7 19.9
08:40 1017 30.03 846 24.98 -1.2 29.9 66 -6.8 19.7
08:45 1017 30.03 846 24.98 -1 30.3 65 -6.8 19.8
08:50 1017 30.03 846 24.98 -0.6 30.9 63 -6.8 19.8
08:55 1017 30.03 846 24.98 -0.5 31.1 63 -6.6 20.1
09:00 1017 30.03 846 24.98 -0.7 30.7 66 -6.3 20.6
09:05 1017 30.03 846 24.98 -0.7 30.8 64 -6.7 20
09:10 1017 30.03 846 24.98 -0.5 31.1 63 -6.7 20
09:15 1017 30.03 846 24.98 -0.2 31.7 62 -6.5 20.3
09:20 1017 30.03 846 24.98 0 32 61 -6.7 20
09:25 1017 30.03 846 24.98 0.3 32.5 60 -6.6 20.1
09:30 1017 30.03 846 24.98 0.5 32.8 60 -6.5 20.3
09:35 1017 30.03 847 25.01 0.6 33.1 59 -6.6 20.1
09:40 1017 30.03 847 25.01 0.5 33 60 -6.3 20.6
09:45 1017 30.03 846 24.98 0.2 32.4 62 -6.2 20.8
09:50 1017 30.03 846 24.98 -0.3 31.5 64 -6.2 20.9
09:55 1017 30.03 846 24.98 -0.5 31.1 66 -6 21.2
10:00 1017 30.03 847 25.01 -0.6 30.9 66 -6.1 21
10:05 1017 30.03 846 24.98 -0.1 31.8 63 -6.4 20.5
10:10 1017 30.03 846 24.98 0.8 33.4 59 -6.4 20.5
10:15 1017 30.03 846 24.98 0.7 33.3 60 -6.3 20.7
10:20 1017 30.03 846 24.98 0.5 32.9 60 -6.3 20.7
10:25 1017 30.03 846 24.98 0.7 33.3 60 -6.2 20.8
10:30 1017 30.03 846 24.98 0.4 32.7 63 -5.9 21.4
10:35 1017 30.03 846 24.98 0.2 32.4 64 -5.9 21.4
10:40 1017 30.03 846 24.98 0.1 32.2 63 -6.2 20.9
10:45 1017 30.03 846 24.98 0.4 32.7 62 -6.1 21
10:50 1017 30.03 846 24.98 0.8 33.5 60 -6 21.2
10:55 1017 30.03 846 24.98 1.2 34.1 61 -5.4 22.2
11:00 1017 30.03 846 24.98 1.4 34.6 64 -4.7 23.6
11:05 1017 30.03 846 24.98 1.8 35.3 60 -5.1 22.9
11:10 1017 30.03 847 25.01 2.2 36 59 -4.9 23.1
11:15 1017 30.03 847 25.01 2.6 36.7 57 -5.1 22.9
11:20 1017 30.03 847 25.01 2.6 36.7 57 -5 22.9
11:25 1017 30.03 847 25.01 2.8 37 56 -5.2 22.6
11:30 1017 30.03 847 25.01 3.3 37.9 52 -5.6 21.9
11:35 1018 30.06 847 25.01 3.8 38.8 52 -5.3 22.5
11:40 1018 30.06 847 25.01 4.4 39.9 50 -5.2 22.7
11:45 1017 30.03 847 25.01 4.6 40.2 49 -5.2 22.7
11:50 1017 30.03 847 25.01 4.5 40 50 -5.1 22.8
11:55 1018 30.06 847 25.01 4.7 40.5 49 -5.2 22.6
12:00 1018 30.06 847 25.01 4.8 40.7 49 -4.9 23.3
12:05 1018 30.06 847 25.01 5 41 48 -5.1 22.8
12:10 1017 30.03 847 25.01 5 41.1 47 -5.3 22.5
12:15 1017 30.03 847 25.01 4.8 40.7 49 -4.9 23.2
12:20 1017 30.03 847 25.01 4.5 40.1 51 -4.7 23.6
12:25 1017 30.03 846 24.98 4.5 40.1 50 -4.9 23.1
12:30 1017 30.03 846 24.98 4.3 39.8 52 -4.7 23.6
12:35 1017 30.03 846 24.98 4.4 39.9 53 -4.5 24
12:40 1017 30.03 846 24.98 4.4 40 53 -4.2 24.4
12:45 1017 30.03 846 24.98 4.5 40.1 53 -4.3 24.2
12:50 1017 30.03 846 24.98 4.5 40.1 51 -4.8 23.4
12:55 1017 30.03 846 24.98 4.8 40.7 51 -4.6 23.8
13:00 1017 30.03 846 24.98 4.7 40.4 51 -4.7 23.6
13:05 1016 30 846 24.98 4.8 40.6 51 -4.6 23.7
13:10 1016 30 846 24.98 5.3 41.5 48 -4.9 23.1
13:15 1016 30 846 24.98 5.9 42.6 44 -5.5 22.1
13:20 1016 30 846 24.98 6.5 43.7 43 -5.2 22.7
13:25 1016 30 846 24.98 6.4 43.4 44 -5.1 22.8
13:30 1016 30 846 24.98 6.3 43.3 44 -5.1 22.8
13:35 1016 30 846 24.98 6.5 43.6 45 -4.7 23.6
13:40 1016 30 846 24.98 6.6 43.9 44 -4.6 23.7
13:45 1016 30 846 24.98 6.7 44.1 47 -3.8 25.2
13:50 1016 30 846 24.98 6.3 43.3 51 -3 26.6
13:55 1016 30 846 24.98 5.4 41.8 56 -2.6 27.3
14:00 1016 30 846 24.98 4.9 40.8 59 -2.5 27.5
14:05 1016 30 846 24.98 4.3 39.8 61 -2.6 27.3
14:10 1016 30 846 24.98 4.2 39.6 61 -2.7 27.2
14:15 1016 30 846 24.98 4.1 39.4 60 -3.1 26.5
14:20 1016 30 846 24.98 3.7 38.6 60 -3.2 26.2
14:25 1016 30 846 24.98 3.7 38.6 60 -3.4 25.9
14:30 1016 30 846 24.98 3.9 38.9 59 -3.3 26
14:35 1016 30 846 24.98 3.9 39.1 61 -2.9 26.9
14:40 1016 30 846 24.98 3.9 39.1 63 -2.5 27.4
14:45 1016 30 846 24.98 3.7 38.6 60 -3.4 25.8
14:50 1016 30 846 24.98 3.4 38.1 61 -3.4 25.9
14:55 1016 30 846 24.98 3.7 38.6 61 -3.1 26.4
15:00 1016 30 845 24.95 3.8 38.8 61 -3 26.6
15:05 1016 30 845 24.95 3.9 39.1 63 -2.5 27.4
15:10 1016 30 845 24.95 4.1 39.4 61 -2.8 26.9
15:15 1016 30 845 24.95 4.5 40 58 -3 26.6
15:20 1016 30 845 24.95 4.6 40.3 57 -3.1 26.3
15:25 1016 30 845 24.95 4.8 40.7 58 -2.8 27
15:30 1016 30 845 24.95 5.2 41.3 56 -2.8 26.9
15:35 1016 30 845 24.95 5 40.9 56 -3 26.5
15:40 1016 30 845 24.95 4.7 40.5 58 -2.9 26.7
15:45 1016 30 845 24.95 4.8 40.7 56 -3.1 26.4
15:50 1016 30 845 24.95 4.9 40.9 56 -3.1 26.5
15:55 1016 30 845 24.95 5 41 57 -2.8 26.9
16:00 1016 30 845 24.95 5.2 41.4 56 -2.8 27
16:05 1016 30 845 24.95 5.2 41.3 57 -2.6 27.4
16:10 1016 30 845 24.95 5.1 41.1 58 -2.5 27.6
16:15 1016 30 845 24.95 5 40.9 57 -2.9 26.8
16:20 1016 30 845 24.95 4.9 40.9 55 -3.3 26.1
16:25 1016 30 845 24.95 5 41 55 -3.2 26.2
16:30 1016 30 845 24.95 5 41 57 -2.9 26.7
16:35 1016 30 845 24.95 4.9 40.9 58 -2.7 27.1
16:40 1016 30 845 24.95 4.8 40.7 58 -2.8 27
16:45 1016 30 845 24.95 4.8 40.7 58 -2.7 27.1
16:50 1016 30 845 24.95 4.9 40.8 58 -2.7 27.1
16:55 1016 30 845 24.95 5 41 58 -2.6 27.4
17:00 1016 30 846 24.98 5.2 41.4 57 -2.5 27.5
17:05 1016 30 846 24.98 5.3 41.6 58 -2.3 27.9
17:10 1016 30 846 24.98 5 41 61 -2 28.4
17:15 1016 30 845 24.95 4.7 40.4 61 -2.2 28
17:20 1016 30 846 24.98 4.4 39.9 62 -2.3 27.9
17:25 1016 30 846 24.98 4.3 39.7 61 -2.6 27.3
17:30 1016 30 846 24.98 4.3 39.7 62 -2.4 27.6
17:35 1016 30 846 24.98 4.2 39.6 60 -2.8 27
17:40 1016 30 846 24.98 4.2 39.6 63 -2.1 28.2
17:45 1017 30.03 846 24.98 4 39.2 60 -3 26.6
17:50 1016 30 846 24.98 4 39.2 62 -2.6 27.4
17:55 1016 30 846 24.98 3.7 38.7 65 -2.2 28.1
18:00 1017 30.03 846 24.98 3.4 38.2 65 -2.5 27.4
18:05 1017 30.03 846 24.98 3.4 38 66 -2.3 27.8
18:10 1017 30.03 846 24.98 3.3 37.9 66 -2.5 27.6
18:15 1017 30.03 846 24.98 3.3 38 66 -2.5 27.5
18:20 1017 30.03 846 24.98 3.4 38.2 65 -2.5 27.5
18:25 1017 30.03 846 24.98 3.5 38.4 65 -2.4 27.6
18:30 1017 30.03 846 24.98 3.5 38.3 67 -2.2 28.1
18:35 1017 30.03 846 24.98 3.2 37.7 68 -2.2 28
18:40 1017 30.03 846 24.98 3 37.4 68 -2.4 27.7
18:45 1017 30.03 846 24.98 3 37.5 65 -3 26.6
18:50 1017 30.03 846 24.98 3.1 37.6 65 -2.9 26.9
18:55 1017 30.03 846 24.98 3.1 37.6 63 -3.2 26.2
19:00 1017 30.03 846 24.98 3.2 37.8 62 -3.3 26.1
19:05 1017 30.03 846 24.98 3.4 38.1 59 -3.8 25.2
19:10 1017 30.03 846 24.98 3.4 38.2 63 -3 26.5
19:15 1017 30.03 846 24.98 3.4 38.1 61 -3.3 26
19:20 1017 30.03 846 24.98 3.5 38.3 63 -2.8 27
19:25 1017 30.03 846 24.98 3.5 38.2 62 -3.2 26.2
19:30 1017 30.03 846 24.98 3.4 38.2 64 -2.7 27.2
19:35 1017 30.03 846 24.98 3.4 38.1 64 -2.8 27
19:40 1017 30.03 846 24.98 3.5 38.3 64 -2.6 27.2
19:45 1017 30.03 846 24.98 3.5 38.3 65 -2.4 27.7
19:50 1017 30.03 846 24.98 3.4 38.1 67 -2.2 28
19:55 1017 30.03 846 24.98 3.2 37.8 66 -2.5 27.5
20:00 1017 30.03 846 24.98 3.4 38.1 70 -1.6 29.1
20:05 1017 30.03 846 24.98 3.4 38.1 66 -2.3 27.9
20:10 1017 30.03 846 24.98 4 39.2 63 -2.4 27.7
20:15 1017 30.03 846 24.98 4.5 40.1 63 -1.9 28.6
20:20 1017 30.03 846 24.98 4.2 39.6 66 -1.6 29.1
20:25 1017 30.03 846 24.98 3.9 39.1 66 -1.7 28.9
20:30 1017 30.03 846 24.98 3.9 39 63 -2.4 27.6
20:35 1017 30.03 846 24.98 4.3 39.7 64 -2 28.5
20:40 1017 30.03 846 24.98 4.3 39.7 61 -2.5 27.6
20:45 1017 30.03 846 24.98 4.2 39.6 65 -1.9 28.6
20:50 1017 30.03 846 24.98 3.9 39 65 -2.1 28.1
20:55 1017 30.03 846 24.98 4.2 39.6 62 -2.5 27.6
21:00 1017 30.03 846 24.98 4.3 39.7 67 -1.2 29.8
21:05 1017 30.03 846 24.98 3.7 38.7 70 -1.3 29.7
21:10 1017 30.03 846 24.98 3.5 38.3 72 -1.1 30
21:15 1017 30.03 846 24.98 3.6 38.4 68 -1.7 29
21:20 1017 30.03 846 24.98 3.6 38.4 69 -1.7 29
21:25 1017 30.03 846 24.98 3.6 38.4 69 -1.6 29.1
21:30 1017 30.03 846 24.98 3.3 38 72 -1.3 29.7
21:35 1017 30.03 846 24.98 3 37.4 73 -1.3 29.7
21:40 1017 30.03 846 24.98 2.9 37.2 74 -1.3 29.7
21:45 1017 30.03 846 24.98 2.9 37.2 74 -1.3 29.6
21:50 1017 30.03 846 24.98 3.1 37.7 73 -1.3 29.7
21:55 1017 30.03 846 24.98 3.3 37.9 73 -1.1 30
22:00 1017 30.03 846 24.98 3.3 38 75 -0.7 30.7
22:05 1017 30.03 846 24.98 3 37.4 75 -1 30.3
22:10 1017 30.03 846 24.98 2.9 37.1 74 -1.3 29.7
22:15 1017 30.03 846 24.98 2.9 37.3 74 -1.3 29.6
22:20 1017 30.03 847 25.01 3 37.4 74 -1.3 29.7
22:25 1017 30.03 847 25.01 2.9 37.3 74 -1.3 29.7
22:30 1017 30.03 847 25.01 2.7 36.9 76 -1 30.2
22:35 1018 30.06 847 25.01 2.4 36.4 77 -1.3 29.7
22:40 1018 30.06 847 25.01 2.4 36.2 77 -1.2 29.8
22:45 1018 30.06 847 25.01 2.1 35.9 79 -1.2 29.9
22:50 1018 30.06 847 25.01 2.1 35.8 78 -1.4 29.6
22:55 1018 30.06 847 25.01 2.4 36.4 76 -1.3 29.6
23:00 1018 30.06 847 25.01 2.5 36.4 76 -1.4 29.5
23:05 1018 30.06 847 25.01 2.4 36.4 76 -1.5 29.4
23:10 1018 30.06 847 25.01 2.5 36.5 75 -1.5 29.3
23:15 1018 30.06 847 25.01 2.7 36.8 74 -1.6 29.2
23:20 1018 30.06 847 25.01 3 37.4 75 -1.1 30
23:25 1018 30.06 847 25.01 3 37.4 74 -1.1 29.9
23:30 1018 30.06 847 25.01 3 37.4 75 -1 30.3
23:35 1018 30.06 847 25.01 2.3 36.2 79 -1 30.3
23:40 1018 30.06 847 25.01 2.1 35.7 79 -1.3 29.7
23:45 1018 30.06 847 25.01 2.3 36.1 76 -1.5 29.3
23:50 1018 30.06 847 25.01 2.6 36.7 76 -1.2 29.8
23:55 1018 30.06 847 25.01 2.4 36.3 77 -1.2 29.9
24:00 1018 30.06 847 25.01 2.1 35.8 78 -1.3 29.7